createdAt,value
2023-12-23T00:03:57.093Z,1.00
2023-12-23T00:08:51.334Z,0.73
2023-12-23T00:13:45.405Z,1.08
2023-12-23T00:18:40.318Z,0.80
2023-12-23T00:23:34.395Z,0.68
2023-12-23T00:28:28.242Z,0.63
2023-12-23T00:33:23.455Z,0.85
2023-12-23T00:38:17.412Z,0.60
2023-12-23T00:43:11.629Z,0.70
2023-12-23T00:48:08.103Z,0.60
2023-12-23T00:53:04.205Z,0.60
2023-12-23T00:57:57.646Z,0.60
2023-12-23T01:02:51.306Z,0.30
2023-12-23T01:07:45.676Z,0.50
2023-12-23T01:12:39.804Z,0.60
2023-12-23T01:17:34.166Z,0.63
2023-12-23T01:22:27.836Z,0.70
2023-12-23T01:27:22.268Z,0.80
2023-12-23T01:32:16.209Z,0.98
2023-12-23T01:37:10.446Z,1.20
2023-12-23T01:42:04.881Z,0.98
2023-12-23T01:47:02.014Z,1.10
2023-12-23T01:51:55.774Z,1.00
2023-12-23T01:56:49.507Z,0.80
2023-12-23T02:01:44.227Z,1.25
2023-12-23T02:06:37.685Z,1.00
2023-12-23T02:11:43.180Z,1.15
2023-12-23T02:16:37.390Z,1.20
2023-12-23T02:21:31.248Z,1.08
2023-12-23T02:26:27.029Z,1.00
2023-12-23T02:31:23.661Z,1.30
2023-12-23T02:36:24.774Z,1.20
2023-12-23T02:41:19.276Z,1.00
2023-12-23T02:46:14.163Z,0.90
2023-12-23T02:51:07.661Z,1.15
2023-12-23T02:56:03.108Z,1.00
2023-12-23T03:00:58.113Z,1.08
2023-12-23T03:05:51.994Z,0.50
2023-12-23T03:10:46.136Z,0.50
2023-12-23T03:15:40.712Z,0.60
2023-12-23T03:20:34.061Z,0.70
2023-12-23T03:25:28.132Z,0.80
2023-12-23T03:30:23.425Z,0.82
2023-12-23T03:35:17.173Z,0.60
2023-12-23T03:40:11.437Z,0.60
2023-12-23T03:45:07.242Z,0.65
2023-12-23T03:50:00.924Z,0.70
2023-12-23T03:54:54.962Z,0.52
2023-12-23T03:59:48.826Z,0.60
2023-12-23T04:04:42.843Z,0.63
2023-12-23T04:09:37.042Z,0.40
2023-12-23T04:14:31.506Z,0.60
2023-12-23T04:19:24.799Z,0.60
2023-12-23T04:24:21.253Z,0.40
2023-12-23T04:29:15.624Z,0.50
2023-12-23T04:34:09.620Z,0.50
2023-12-23T04:39:07.500Z,0.40
2023-12-23T04:44:01.798Z,0.50
2023-12-23T04:48:55.780Z,0.35
2023-12-23T04:53:49.925Z,0.50
2023-12-23T04:58:43.826Z,0.40
2023-12-23T05:03:38.079Z,0.47
2023-12-23T05:08:32.252Z,0.30
2023-12-23T05:13:26.319Z,0.60
2023-12-23T05:18:21.359Z,1.52
2023-12-23T05:23:15.645Z,0.40
2023-12-23T05:28:09.178Z,0.63
2023-12-23T05:33:03.207Z,0.60
2023-12-23T05:37:58.945Z,0.55
2023-12-23T05:42:54.347Z,0.98
2023-12-23T05:47:50.212Z,0.65
2023-12-23T05:52:43.865Z,0.40
2023-12-23T05:57:38.047Z,0.40
2023-12-23T06:02:32.075Z,0.30
2023-12-23T06:07:25.818Z,0.55
2023-12-23T06:12:20.008Z,0.73
2023-12-23T06:17:14.111Z,0.80
2023-12-23T06:22:08.681Z,1.00
2023-12-23T06:27:02.226Z,0.47
2023-12-23T06:31:56.742Z,0.70
2023-12-23T06:36:50.797Z,0.40
2023-12-23T06:41:48.346Z,0.43
2023-12-23T06:46:43.057Z,0.50
2023-12-23T06:51:37.405Z,0.32
2023-12-23T06:56:31.559Z,0.68
2023-12-23T07:01:25.124Z,0.50
2023-12-23T07:06:19.543Z,0.30
2023-12-23T07:11:14.068Z,0.85
2023-12-23T07:16:10.538Z,0.40
2023-12-23T07:21:05.622Z,0.32
2023-12-23T07:26:00.640Z,0.30
2023-12-23T07:30:54.718Z,0.20
2023-12-23T07:35:50.283Z,0.50
2023-12-23T07:40:44.549Z,0.77
2023-12-23T07:45:38.680Z,0.60
2023-12-23T07:50:32.605Z,0.30
2023-12-23T07:55:28.435Z,0.40
2023-12-23T08:00:23.363Z,0.20
2023-12-23T08:05:17.783Z,0.20
2023-12-23T08:10:15.106Z,0.20
2023-12-23T08:15:11.950Z,0.20
2023-12-23T08:20:08.988Z,0.20
2023-12-23T08:25:03.083Z,0.30
2023-12-23T08:29:58.210Z,0.65
2023-12-23T08:34:52.146Z,0.90
2023-12-23T08:39:46.405Z,0.60
2023-12-23T08:44:40.187Z,0.20
2023-12-23T08:49:34.158Z,0.50
2023-12-23T08:54:28.614Z,0.30
2023-12-23T08:59:22.686Z,0.40
2023-12-23T09:04:17.027Z,0.47
2023-12-23T09:09:10.763Z,0.40
2023-12-23T09:14:04.459Z,0.30
2023-12-23T09:18:58.713Z,0.30
2023-12-23T09:23:52.657Z,0.30
2023-12-23T09:28:47.353Z,0.20
2023-12-23T09:33:41.668Z,0.20
2023-12-23T09:38:36.350Z,1.00
2023-12-23T09:43:30.374Z,0.50
2023-12-23T09:48:24.225Z,0.38
2023-12-23T09:53:22.866Z,0.25
2023-12-23T09:58:16.788Z,0.30
2023-12-23T10:03:10.874Z,0.30
2023-12-23T10:08:05.915Z,0.38
2023-12-23T10:13:00.578Z,0.50
2023-12-23T10:17:55.747Z,0.80
2023-12-23T10:22:49.463Z,0.95
2023-12-23T10:27:44.422Z,1.67
2023-12-23T10:32:40.028Z,0.77
2023-12-23T10:37:36.541Z,1.00
2023-12-23T10:42:31.335Z,0.30
2023-12-23T10:47:26.966Z,0.30
2023-12-23T10:52:21.488Z,0.50
2023-12-23T10:57:18.115Z,0.60
2023-12-23T11:02:15.016Z,0.70
2023-12-23T11:07:10.639Z,0.40
2023-12-23T11:12:05.904Z,0.40
2023-12-23T11:17:00.300Z,0.40
2023-12-23T11:22:33.905Z,0.50
2023-12-23T11:27:33.784Z,0.68
2023-12-23T11:32:27.741Z,0.60
2023-12-23T11:37:24.871Z,0.45
2023-12-23T11:42:19.020Z,0.50
2023-12-23T11:47:12.773Z,0.95
2023-12-23T11:52:09.622Z,0.90
2023-12-23T11:57:02.992Z,1.00
2023-12-23T12:01:59.769Z,1.20
2023-12-23T12:06:54.739Z,0.70
2023-12-23T12:11:49.523Z,0.70
2023-12-23T12:16:44.281Z,0.40
2023-12-23T12:21:38.098Z,0.50
2023-12-23T12:26:31.551Z,0.50
2023-12-23T12:31:25.359Z,0.50
2023-12-23T12:36:19.667Z,0.45
2023-12-23T12:41:15.449Z,0.47
2023-12-23T12:46:10.751Z,5.15
2023-12-23T12:51:07.240Z,3.00
2023-12-23T12:56:16.451Z,3.58
2023-12-23T13:01:12.111Z,1.02
2023-12-23T13:06:06.846Z,0.40
2023-12-23T13:11:00.781Z,0.60
2023-12-23T13:15:54.926Z,0.90
2023-12-23T13:20:48.291Z,0.82
2023-12-23T13:25:42.867Z,1.50
2023-12-23T13:30:37.652Z,1.70
2023-12-23T13:35:32.201Z,1.45
2023-12-23T13:40:26.289Z,1.60
2023-12-23T13:45:19.587Z,1.13
2023-12-23T13:50:13.504Z,0.65
2023-12-23T13:55:09.784Z,0.80
2023-12-23T14:00:03.980Z,0.60
2023-12-23T14:05:00.222Z,0.60
2023-12-23T14:09:54.214Z,0.40
2023-12-23T14:14:49.406Z,0.65
2023-12-23T14:19:43.186Z,0.40
2023-12-23T14:24:37.268Z,0.60
2023-12-23T14:29:32.479Z,0.43
2023-12-23T14:34:26.864Z,0.40
2023-12-23T14:39:24.560Z,0.80
2023-12-23T14:44:39.163Z,0.77
2023-12-23T14:49:33.160Z,0.60
2023-12-23T14:54:27.247Z,0.63
2023-12-23T14:59:20.467Z,0.80
2023-12-23T15:04:15.225Z,0.82
2023-12-23T15:09:09.200Z,1.15
2023-12-23T15:14:02.837Z,0.50
2023-12-23T15:18:57.317Z,0.57
2023-12-23T15:23:51.315Z,0.88
2023-12-23T15:28:44.927Z,0.40
2023-12-23T15:33:39.681Z,1.08
2023-12-23T15:38:33.244Z,0.80
2023-12-23T15:43:27.109Z,0.90
2023-12-23T15:48:21.416Z,0.40
2023-12-23T15:53:17.747Z,0.52
2023-12-23T15:58:12.234Z,0.68
2023-12-23T16:03:07.895Z,1.42
2023-12-23T16:08:04.669Z,0.60
2023-12-23T16:13:01.005Z,0.63
2023-12-23T16:17:54.531Z,1.98
2023-12-23T16:22:51.466Z,2.72
2023-12-23T16:27:45.359Z,1.52
2023-12-23T16:32:39.819Z,1.10
2023-12-23T16:37:33.913Z,0.77
2023-12-23T16:42:30.549Z,1.42
2023-12-23T16:47:26.708Z,0.60
2023-12-23T16:52:21.087Z,1.10
2023-12-23T16:57:14.949Z,1.33
2023-12-23T17:02:09.376Z,1.98
2023-12-23T17:07:03.759Z,2.00
2023-12-23T17:11:57.623Z,4.68
2023-12-23T17:16:51.592Z,2.08
2023-12-23T17:21:45.873Z,2.25
2023-12-23T17:26:40.364Z,1.65
2023-12-23T17:31:34.372Z,1.80
2023-12-23T17:36:28.452Z,2.03
2023-12-23T17:41:22.378Z,1.13
2023-12-23T17:46:16.990Z,1.25
2023-12-23T17:51:10.949Z,1.92
2023-12-23T17:56:08.976Z,2.13
2023-12-23T18:01:02.637Z,1.67
2023-12-23T18:05:56.711Z,1.02
2023-12-23T18:10:50.017Z,1.35
2023-12-23T18:15:46.737Z,1.20
2023-12-23T18:20:40.100Z,1.17
2023-12-23T18:25:34.619Z,1.50
2023-12-23T18:30:28.686Z,1.00
2023-12-23T18:35:23.423Z,1.30
2023-12-23T18:40:17.990Z,2.05
2023-12-23T18:45:14.270Z,2.58
2023-12-23T18:50:10.446Z,1.13
2023-12-23T18:55:04.902Z,2.08
2023-12-23T18:59:58.827Z,2.10
2023-12-23T19:04:52.917Z,0.77
2023-12-23T19:09:47.823Z,0.60
2023-12-23T19:14:43.291Z,1.20
2023-12-23T19:19:37.190Z,0.90
2023-12-23T19:24:30.528Z,0.90
2023-12-23T19:29:25.000Z,1.15
2023-12-23T19:34:19.769Z,0.90
2023-12-23T19:39:13.779Z,0.98
2023-12-23T19:44:09.125Z,1.40
2023-12-23T19:49:03.067Z,1.02
2023-12-23T19:53:59.741Z,0.60
2023-12-23T19:58:54.444Z,0.77
2023-12-23T20:03:50.185Z,0.57
2023-12-23T20:08:43.926Z,0.80
2023-12-23T20:13:37.487Z,0.68
2023-12-23T20:18:31.313Z,0.88
2023-12-23T20:23:26.154Z,1.00
2023-12-23T20:28:20.385Z,0.80
2023-12-23T20:33:15.700Z,0.40
2023-12-23T20:38:09.573Z,0.52
2023-12-23T20:43:04.438Z,0.70
2023-12-23T20:47:58.410Z,0.60
2023-12-23T20:52:51.989Z,0.70
2023-12-23T20:57:46.981Z,2.10
2023-12-23T21:02:40.792Z,1.80
2023-12-23T21:07:35.156Z,0.70
2023-12-23T21:12:29.471Z,1.10
2023-12-23T21:17:22.588Z,1.20
2023-12-23T21:22:17.074Z,0.55
2023-12-23T21:27:11.127Z,0.70
2023-12-23T21:32:06.848Z,0.75
2023-12-23T21:37:00.975Z,0.80
2023-12-23T21:41:55.132Z,0.70
2023-12-23T21:46:49.480Z,1.13
2023-12-23T21:51:43.968Z,0.70
2023-12-23T21:56:39.056Z,0.60
2023-12-23T22:01:33.963Z,0.80
2023-12-23T22:06:27.775Z,0.70
2023-12-23T22:11:22.283Z,0.80
2023-12-23T22:16:16.438Z,1.15
2023-12-23T22:21:14.039Z,0.98
2023-12-23T22:26:07.768Z,1.10
2023-12-23T22:31:02.234Z,0.43
2023-12-23T22:35:57.122Z,0.45
2023-12-23T22:40:50.563Z,0.57
2023-12-23T22:45:44.201Z,0.60
2023-12-23T22:50:40.497Z,0.50
2023-12-23T22:55:34.531Z,0.28
2023-12-23T23:00:31.321Z,0.50
2023-12-23T23:05:25.330Z,0.43
2023-12-23T23:10:19.342Z,0.52
2023-12-23T23:15:14.533Z,1.38
2023-12-23T23:20:09.882Z,1.23
2023-12-23T23:25:04.676Z,1.60
2023-12-23T23:29:58.853Z,6.65
2023-12-23T23:35:01.196Z,3.60
2023-12-23T23:40:02.294Z,3.13
2023-12-23T23:44:56.096Z,2.78
2023-12-23T23:49:50.544Z,3.03
2023-12-23T23:54:44.965Z,2.30
2023-12-23T23:59:39.983Z,1.77
